Time;durP1;ratioP1;P1;durP2;ratioP2;P2;SDS_P1;SDS_P2;PMS_P1;PMS_P2;Temp;Humidity;BMP_temperature;BMP_pressure;BME280_temperature;BME280_humidity;BME280_pressure;Samples;Min_cycle;Max_cycle;Signal;HPM_P1;HPM_P2
2021/08/18 00:00:21;;;;;;;14.40;11.73;;;;;;;27.04;53.55;101102.16;1677477;85;21556;-49
2021/08/18 00:02:48;;;;;;;17.12;12.20;;;;;;;27.03;53.58;101101.82;1677419;85;21080;-49
2021/08/18 00:05:15;;;;;;;13.78;11.12;;;;;;;27.01;53.47;101105.11;1677508;85;21037;-46
2021/08/18 00:07:45;;;;;;;15.43;10.28;;;;;;;26.98;53.46;101110.70;1677346;85;21044;-49
2021/08/18 00:10:13;;;;;;;11.50;9.55;;;;;;;26.95;53.40;101106.97;1677559;85;21055;-46
2021/08/18 00:12:40;;;;;;;12.60;8.78;;;;;;;26.94;53.30;101111.08;1677502;85;21041;-49
2021/08/18 00:15:09;;;;;;;9.88;8.05;;;;;;;26.91;53.23;101108.20;1681053;85;21048;-46
2021/08/18 00:17:36;;;;;;;10.00;8.48;;;;;;;26.86;53.24;101111.73;1679618;84;22241;-46
2021/08/18 00:20:05;;;;;;;10.32;7.53;;;;;;;26.81;53.30;101111.25;1677301;85;21116;-46
2021/08/18 00:22:32;;;;;;;10.08;7.75;;;;;;;26.78;53.39;101113.34;1681432;84;21516;-47
2021/08/18 00:24:59;;;;;;;9.05;8.15;;;;;;;26.77;53.41;101113.83;1680831;84;21068;-47
2021/08/18 00:27:25;;;;;;;16.97;9.35;;;;;;;26.77;53.41;101113.83;1684707;84;21085;-47
2021/08/18 00:29:52;;;;;;;12.37;8.88;;;;;;;26.77;53.43;101111.16;1678897;85;21599;-46
2021/08/18 00:32:19;;;;;;;9.48;7.65;;;;;;;26.77;53.43;101111.67;1677419;85;21064;-50
2021/08/18 00:34:46;;;;;;;10.00;7.20;;;;;;;26.77;53.46;101112.48;1677541;85;21072;-47
2021/08/18 00:37:13;;;;;;;8.88;7.97;;;;;;;26.77;53.56;101109.82;1677268;85;21068;-46
2021/08/18 00:39:39;;;;;;;8.10;7.12;;;;;;;26.77;53.73;101111.16;1684852;84;21572;-47
2021/08/18 00:42:06;;;;;;;10.65;7.17;;;;;;;26.77;53.83;101109.00;1677622;84;21489;-51
2021/08/18 00:44:36;;;;;;;10.88;7.22;;;;;;;26.76;53.90;101113.48;1677559;85;20984;-50
2021/08/18 00:47:05;;;;;;;9.08;7.00;;;;;;;26.76;53.98;101112.14;1677597;85;21092;-47
2021/08/18 00:49:31;;;;;;;9.35;6.65;;;;;;;26.76;54.00;101113.48;1677648;85;21028;-50
2021/08/18 00:51:59;;;;;;;17.77;7.65;;;;;;;26.75;54.04;101113.11;1677439;85;21005;-46
2021/08/18 00:54:25;;;;;;;12.03;8.10;;;;;;;26.75;54.03;101125.13;1677596;85;21473;-50
2021/08/18 00:56:53;;;;;;;9.18;6.90;;;;;;;26.75;54.19;101120.30;1677387;85;21048;-46
2021/08/18 00:59:20;;;;;;;7.95;7.12;;;;;;;26.73;54.23;101121.73;1680651;85;21021;-47
2021/08/18 01:01:46;;;;;;;8.03;7.00;;;;;;;26.72;54.30;101120.05;1677879;85;21100;-48
2021/08/18 01:04:13;;;;;;;13.45;7.28;;;;;;;26.71;54.40;101128.16;1677562;85;21024;-46
2021/08/18 01:06:44;;;;;;;8.78;7.15;;;;;;;26.71;54.47;101131.66;1677449;85;21055;-50
2021/08/18 01:09:13;;;;;;;9.58;7.05;;;;;;;26.69;54.50;101132.27;1677758;84;21045;-50
2021/08/18 01:11:44;;;;;;;9.38;7.42;;;;;;;26.68;54.61;101137.27;1680542;85;21563;-48
2021/08/18 01:14:12;;;;;;;;;;;;;;;26.67;54.73;101139.56;1679819;85;21092;-52
2021/08/18 01:16:42;;;;;;;8.45;7.55;;;;;;;26.66;54.77;101143.70;1681963;84;20109;-47
2021/08/18 01:19:10;;;;;;;8.83;7.15;;;;;;;26.63;54.93;101142.13;1680603;85;21016;-47
2021/08/18 01:21:41;;;;;;;8.75;7.80;;;;;;;26.61;55.08;101140.07;1677196;85;21080;-51
2021/08/18 01:24:09;;;;;;;18.98;8.13;;;;;;;26.59;55.26;101138.87;1677299;85;21064;-46
2021/08/18 01:26:38;;;;;;;11.57;7.95;;;;;;;26.57;55.62;101143.48;1677278;85;21064;-51
2021/08/18 01:29:05;;;;;;;8.43;7.62;;;;;;;26.55;55.81;101141.91;1677557;85;21060;-46
2021/08/18 01:31:32;;;;;;;9.60;8.58;;;;;;;26.53;55.70;101139.38;1677413;85;21538;-50
2021/08/18 01:34:01;;;;;;;11.38;8.40;;;;;;;26.52;55.42;101142.17;1678645;85;21072;-50
2021/08/18 01:36:31;;;;;;;9.05;7.90;;;;;;;26.49;55.24;101150.42;1682051;84;21095;-47
2021/08/18 01:39:06;;;;;;;11.00;8.67;;;;;;;26.45;55.13;101150.31;1677472;85;21100;-51
2021/08/18 01:41:33;;;;;;;10.48;9.15;;;;;;;26.40;55.11;101159.16;1650119;86;21058;-46
2021/08/18 01:44:00;;;;;;;10.13;8.25;;;;;;;26.39;55.04;101161.48;1652694;87;21133;-47
2021/08/18 01:46:27;;;;;;;9.98;8.50;;;;;;;26.39;55.04;101161.48;1653116;87;21614;-47
2021/08/18 01:48:54;;;;;;;12.05;8.83;;;;;;;26.35;55.05;101172.05;1652813;87;21122;-47
2021/08/18 01:51:22;;;;;;;10.78;8.90;;;;;;;26.35;55.02;101170.71;1652990;87;21066;-51
2021/08/18 01:53:48;;;;;;;9.78;8.88;;;;;;;26.32;55.05;101165.13;1652839;87;21019;-49
2021/08/18 01:56:18;;;;;;;11.22;8.65;;;;;;;26.28;55.12;101170.83;1653029;87;21019;-48
2021/08/18 01:58:49;;;;;;;9.98;8.58;;;;;;;26.28;55.12;101170.83;1659848;86;21087;-52
2021/08/18 02:01:16;;;;;;;8.90;7.75;;;;;;;26.23;54.49;101173.89;1652806;87;21103;-48
2021/08/18 02:03:45;;;;;;;12.03;7.60;;;;;;;26.19;54.32;101168.92;1652926;87;21747;-50
2021/08/18 02:06:11;;;;;;;10.13;7.67;;;;;;;26.13;54.22;101170.75;1653227;87;21035;-50
2021/08/18 02:08:39;;;;;;;10.58;7.75;;;;;;;26.08;54.17;101166.25;1631191;87;21062;-51
2021/08/18 02:11:06;;;;;;;13.95;7.75;;;;;;;26.08;54.17;101166.25;1653080;87;21119;-50
2021/08/18 02:13:33;;;;;;;8.63;7.75;;;;;;;26.08;54.19;101179.59;1652902;87;21130;-48
2021/08/18 02:16:00;;;;;;;9.03;7.75;;;;;;;26.05;54.37;101175.30;1653124;87;21543;-50
2021/08/18 02:18:27;;;;;;;14.40;8.23;;;;;;;26.04;54.54;101164.77;1653063;87;21027;-46
2021/08/18 02:20:53;;;;;;;9.33;7.80;;;;;;;26.02;54.42;101166.23;1653019;87;21488;-50
2021/08/18 02:23:21;;;;;;;12.40;8.00;;;;;;;26.01;54.46;101162.36;1655064;86;21139;-50
2021/08/18 02:25:48;;;;;;;11.33;8.73;;;;;;;26.00;54.55;101159.31;1653370;87;21023;-50
2021/08/18 02:28:15;;;;;;;11.38;8.40;;;;;;;25.98;54.49;101161.25;1653027;87;21546;-49
2021/08/18 02:30:42;;;;;;;9.80;8.30;;;;;;;25.97;54.53;101159.06;1655113;85;21082;-47
2021/08/18 02:33:09;;;;;;;9.53;8.53;;;;;;;25.96;54.57;101157.38;1677671;85;21020;-50
2021/08/18 02:35:36;;;;;;;13.38;8.50;;;;;;;25.97;54.58;101158.20;1677697;85;21599;-47
2021/08/18 02:38:06;;;;;;;12.68;7.87;;;;;;;25.96;54.57;101159.20;1677345;85;21041;-50
2021/08/18 02:40:33;;;;;;;14.75;8.30;;;;;;;25.95;54.54;101150.81;1677354;85;21052;-46
2021/08/18 02:43:01;;;;;;;10.40;8.33;;;;;;;25.94;54.60;101150.47;1677671;85;21504;-51
2021/08/18 02:45:28;;;;;;;11.28;8.55;;;;;;;25.93;54.65;101146.09;1677458;84;21092;-51
2021/08/18 02:47:55;;;;;;;11.05;8.73;;;;;;;25.92;54.63;101137.27;1677696;85;21028;-47
2021/08/18 02:50:23;;;;;;;9.80;8.25;;;;;;;25.92;54.66;101135.08;1677432;85;21037;-48
2021/08/18 02:52:50;;;;;;;10.90;8.10;;;;;;;25.90;54.87;101141.02;1677547;85;21028;-50
2021/08/18 02:55:18;;;;;;;11.55;7.80;;;;;;;25.89;54.68;101140.64;1677351;85;21533;-51
2021/08/18 02:57:45;;;;;;;15.08;8.05;;;;;;;25.89;54.68;101140.64;1677658;85;21021;-46
2021/08/18 03:00:13;;;;;;;9.88;8.88;;;;;;;25.88;54.73;101145.15;1677615;85;21556;-50
2021/08/18 03:02:40;;;;;;;12.00;8.45;;;;;;;25.88;54.85;101147.81;1677699;85;21512;-47
2021/08/18 03:05:10;;;;;;;13.60;12.20;;;;;;;25.88;54.85;101147.81;1677861;85;21057;-47
2021/08/18 03:07:36;;;;;;;9.75;8.75;;;;;;;25.89;54.98;101145.97;1677606;85;21004;-47
2021/08/18 03:10:04;;;;;;;39.70;35.50;;;;;;;25.90;55.13;101146.35;1693849;84;21040;-51
2021/08/18 03:12:31;;;;;;;15.60;12.20;;;;;;;25.90;55.22;101135.69;1677765;85;21045;-51
2021/08/18 03:14:59;;;;;;;11.43;9.45;;;;;;;25.90;55.34;101138.35;1677306;85;21056;-47
2021/08/18 03:17:26;;;;;;;12.93;8.05;;;;;;;25.91;55.56;101136.03;1679921;84;21084;-47
2021/08/18 03:19:55;;;;;;;16.07;8.48;;;;;;;25.90;55.68;101135.69;1677580;84;21080;-51
2021/08/18 03:22:22;;;;;;;12.05;9.13;;;;;;;25.90;55.73;101137.88;1677406;85;21100;-47
2021/08/18 03:24:48;;;;;;;18.65;9.25;;;;;;;25.90;55.73;101137.88;1677435;85;21029;-49
2021/08/18 03:27:15;;;;;;;20.97;11.45;;;;;;;25.93;55.61;101140.76;1677386;85;21070;-50
2021/08/18 03:29:42;;;;;;;261.77;27.37;;;;;;;25.94;55.70;101142.47;1677700;85;21029;-49
2021/08/18 03:32:08;;;;;;;33.98;11.08;;;;;;;25.96;55.77;101145.86;1677516;85;21527;-51
2021/08/18 03:34:35;;;;;;;13.20;8.83;;;;;;;25.94;55.87;101146.00;1677359;85;21128;-48
2021/08/18 03:37:03;;;;;;;11.15;8.35;;;;;;;25.98;55.93;101149.26;1677373;84;21650;-47
2021/08/18 03:39:30;;;;;;;10.65;8.13;;;;;;;25.99;56.02;101148.30;1677500;85;21080;-47
2021/08/18 03:41:59;;;;;;;22.48;8.75;;;;;;;26.01;56.16;101149.84;1677302;85;21053;-50
2021/08/18 03:44:26;;;;;;;16.32;9.00;;;;;;;26.04;56.11;101139.44;1677599;85;21048;-50
2021/08/18 03:46:52;;;;;;;14.50;9.43;;;;;;;26.06;56.06;101138.83;1677393;85;21025;-47
2021/08/18 03:49:19;;;;;;;9.70;8.60;;;;;;;26.07;55.90;101139.20;1684205;84;21061;-47
2021/08/18 03:51:46;;;;;;;16.10;9.35;;;;;;;26.11;55.96;101142.02;1678015;85;21021;-50
2021/08/18 03:54:13;;;;;;;18.12;10.70;;;;;;;26.12;55.89;101135.70;1678580;85;21021;-50
2021/08/18 03:56:40;;;;;;;21.80;14.85;;;;;;;26.13;55.96;101137.41;1679413;84;21068;-50
2021/08/18 03:59:06;;;;;;;15.60;10.60;;;;;;;26.15;55.90;101138.13;1677509;85;21520;-50
2021/08/18 04:01:33;;;;;;;17.05;10.25;;;;;;;26.16;55.92;101135.81;1677201;85;21021;-46
2021/08/18 04:03:59;;;;;;;16.95;10.30;;;;;;;26.17;55.89;101129.01;1677595;85;20993;-46
2021/08/18 04:06:25;;;;;;;14.60;9.73;;;;;;;26.19;56.03;101124.43;1677467;85;21004;-48
2021/08/18 04:08:52;;;;;;;10.25;9.20;;;;;;;26.19;56.03;101124.43;1677608;84;21044;-49
2021/08/18 04:11:20;;;;;;;15.90;9.15;;;;;;;26.23;56.02;101123.20;1677331;85;21556;-46
2021/08/18 04:13:48;;;;;;;22.37;9.10;;;;;;;26.23;55.79;101119.69;1677244;85;21068;-47
2021/08/18 04:16:14;;;;;;;15.23;9.50;;;;;;;26.28;55.92;101126.81;1677187;85;21135;-45
2021/08/18 04:18:44;;;;;;;18.25;9.60;;;;;;;26.29;56.02;101116.52;1677281;84;21049;-50
2021/08/18 04:21:12;;;;;;;18.37;11.03;;;;;;;26.33;56.00;101116.62;1677414;85;21529;-48
2021/08/18 04:23:40;;;;;;;18.92;10.75;;;;;;;26.36;56.14;101117.70;1677280;85;21092;-46
2021/08/18 04:26:07;;;;;;;22.32;11.08;;;;;;;26.38;56.21;101110.41;1677468;85;21072;-48
2021/08/18 04:28:33;;;;;;;15.53;10.18;;;;;;;26.42;56.28;101117.22;1677475;85;21516;-47
2021/08/18 04:31:02;;;;;;;12.80;9.85;;;;;;;26.45;56.32;101110.28;1677322;85;21112;-49
2021/08/18 04:33:28;;;;;;;13.38;8.40;;;;;;;26.49;56.35;101109.05;1677552;84;21161;-47
2021/08/18 04:35:54;;;;;;;13.88;9.48;;;;;;;26.53;56.35;101110.50;1677427;85;21059;-50
2021/08/18 04:38:24;;;;;;;19.90;11.73;;;;;;;26.58;56.45;101107.80;1677247;85;21108;-51
2021/08/18 04:40:51;;;;;;;19.40;13.70;;;;;;;26.63;56.49;101104.75;1677204;85;21092;-50
2021/08/18 04:43:18;;;;;;;13.85;9.65;;;;;;;26.70;56.54;101102.42;1679891;85;21033;-46
2021/08/18 04:45:47;;;;;;;12.93;8.43;;;;;;;26.78;56.71;101096.84;1679229;84;21060;-50
2021/08/18 04:48:13;;;;;;;12.40;8.60;;;;;;;26.84;56.94;101092.33;1678631;84;21049;-50
2021/08/18 04:50:40;;;;;;;10.05;8.88;;;;;;;26.84;56.94;101092.33;1677245;85;21044;-50
2021/08/18 04:53:11;;;;;;;12.47;7.87;;;;;;;26.91;57.04;101095.33;1677549;85;21029;-51
2021/08/18 04:55:39;;;;;;;8.68;7.10;;;;;;;26.96;57.16;101096.62;1677471;85;21072;-50
2021/08/18 04:58:05;;;;;;;20.35;18.37;;;;;;;27.01;57.29;101102.44;1677418;84;21037;-51
2021/08/18 05:00:32;;;;;;;29.23;26.00;;;;;;;27.06;57.37;101097.53;1677662;85;21020;-47
2021/08/18 05:02:58;;;;;;;38.70;34.55;;;;;;;27.11;57.53;101096.67;1677336;85;21056;-47
2021/08/18 05:05:25;;;;;;;16.00;14.47;;;;;;;27.16;57.60;101101.12;1677608;85;21033;-51
2021/08/18 05:07:52;;;;;;;36.17;32.53;;;;;;;27.21;57.68;101098.91;1677247;85;21044;-52
2021/08/18 05:10:19;;;;;;;14.98;13.48;;;;;;;27.27;57.70;101098.87;1677391;85;21587;-46
2021/08/18 05:12:46;;;;;;;19.75;17.20;;;;;;;27.30;57.79;101106.16;1678588;85;21048;-52
2021/08/18 05:15:14;;;;;;;9.55;8.30;;;;;;;27.34;57.76;101099.59;1677261;85;21555;-47
2021/08/18 05:17:44;;;;;;;8.40;6.33;;;;;;;27.39;57.70;101108.05;1677338;85;21036;-50
2021/08/18 05:20:11;;;;;;;6.80;6.10;;;;;;;27.44;57.60;101104.13;1677198;85;21057;-50
2021/08/18 05:22:38;;;;;;;10.65;5.83;;;;;;;27.49;57.50;101095.23;1677164;85;21105;-50
2021/08/18 05:25:08;;;;;;;6.90;5.50;;;;;;;27.55;57.50;101104.06;1677196;85;21033;-49
2021/08/18 05:27:35;;;;;;;7.92;5.67;;;;;;;27.59;57.48;101102.81;1677439;85;21552;-50
2021/08/18 05:30:01;;;;;;;7.75;5.75;;;;;;;27.64;57.35;101103.23;1677264;85;21041;-50
2021/08/18 05:32:28;;;;;;;6.55;5.92;;;;;;;27.68;57.25;101097.49;1677371;84;21060;-50
2021/08/18 05:34:55;;;;;;;7.78;5.67;;;;;;;27.73;57.25;101101.11;1677214;85;21065;-53
2021/08/18 05:37:22;;;;;;;6.78;5.42;;;;;;;27.79;57.34;101103.24;1677211;85;21548;-49
2021/08/18 05:39:48;;;;;;;7.35;5.72;;;;;;;27.83;57.38;101093.97;1677469;85;21028;-51
2021/08/18 05:42:14;;;;;;;7.60;6.25;;;;;;;27.90;57.38;101091.94;1673074;85;21040;-49
2021/08/18 05:44:42;;;;;;;7.47;5.62;;;;;;;27.97;57.18;101093.62;1664687;85;21049;-50
2021/08/18 05:47:09;;;;;;;7.60;5.62;;;;;;;28.03;57.13;101094.41;1661134;85;20993;-49
2021/08/18 05:49:35;;;;;;;10.32;6.25;;;;;;;28.08;56.97;101092.19;1663356;84;21087;-46
2021/08/18 05:52:04;;;;;;;6.28;5.67;;;;;;;28.13;56.95;101089.95;1666052;84;21060;-47
2021/08/18 05:54:32;;;;;;;9.78;6.28;;;;;;;28.22;56.92;101094.95;1665075;85;21564;-49
2021/08/18 05:56:58;;;;;;;7.92;7.03;;;;;;;28.29;56.80;101092.09;1663228;85;21025;-50
2021/08/18 05:59:27;;;;;;;7.20;6.35;;;;;;;28.37;56.55;101090.41;1664466;85;21076;-48
2021/08/18 06:01:53;;;;;;;6.17;5.58;;;;;;;28.47;56.38;101088.59;1666521;85;21524;-49
2021/08/18 06:04:20;;;;;;;8.28;6.60;;;;;;;28.61;56.23;101081.50;1660725;85;21100;-49
2021/08/18 06:06:47;;;;;;;7.65;6.00;;;;;;;28.83;55.88;101083.89;1663232;85;22052;-47
2021/08/18 06:09:13;;;;;;;8.25;5.78;;;;;;;29.07;55.08;101085.27;1662915;85;21060;-48
2021/08/18 06:11:42;;;;;;;7.05;5.80;;;;;;;29.27;54.18;101085.61;1661510;85;21186;-50
2021/08/18 06:14:09;;;;;;;9.38;6.17;;;;;;;29.41;53.62;101083.80;1672476;85;21060;-48
2021/08/18 06:16:37;;;;;;;11.55;7.83;;;;;;;29.51;53.29;101085.98;1668467;84;21125;-47
2021/08/18 06:19:04;;;;;;;6.80;6.10;;;;;;;29.62;52.99;101079.07;1660310;85;21077;-48
2021/08/18 06:21:31;;;;;;;8.50;5.92;;;;;;;29.72;52.65;101077.19;1658281;85;21540;-48
2021/08/18 06:24:06;;;;;;;7.15;5.90;;;;;;;29.80;52.29;101080.00;1664370;85;21033;-50
2021/08/18 06:26:27;;;;;;;5.90;5.30;;;;;;;29.92;51.95;101077.50;1682548;84;21074;-47
2021/08/18 06:28:55;;;;;;;6.87;5.03;;;;;;;30.02;51.40;101072.91;1674942;84;21084;-48
2021/08/18 06:31:21;;;;;;;5.95;5.40;;;;;;;30.10;51.11;101067.64;1665714;85;21525;-52
2021/08/18 06:33:49;;;;;;;7.53;5.58;;;;;;;30.14;51.14;101062.31;1660205;84;21579;-46
2021/08/18 06:36:17;;;;;;;5.35;4.85;;;;;;;30.19;51.01;101061.34;1670277;85;21065;-49
2021/08/18 06:38:45;;;;;;;6.50;5.53;;;;;;;30.26;50.95;101065.13;1664442;85;21105;-48
2021/08/18 06:41:11;;;;;;;8.78;6.08;;;;;;;30.38;50.46;101058.56;1663820;85;21052;-51
2021/08/18 06:43:41;;;;;;;7.17;5.90;;;;;;;30.49;50.29;101058.34;1662726;85;21041;-51
2021/08/18 06:46:08;;;;;;;6.60;5.10;;;;;;;30.57;49.84;101062.08;1665737;85;21022;-49
2021/08/18 06:48:34;;;;;;;6.33;5.80;;;;;;;30.61;49.75;101060.77;1668809;85;21067;-46
2021/08/18 06:51:03;;;;;;;6.17;5.58;;;;;;;30.62;49.63;101059.79;1664208;85;21092;-47
2021/08/18 06:53:32;;;;;;;8.65;5.00;;;;;;;30.64;49.73;101054.62;1666344;85;21111;-47
2021/08/18 06:55:59;;;;;;;13.53;12.23;;;;;;;30.62;49.55;101058.45;1666044;85;21528;-49
2021/08/18 06:58:27;;;;;;;8.53;7.67;;;;;;;30.60;49.69;101051.05;1661319;84;21078;-52
2021/08/18 07:00:57;;;;;;;9.23;5.65;;;;;;;30.59;49.70;101057.40;1670454;85;21092;-50
2021/08/18 07:03:24;;;;;;;6.22;5.28;;;;;;;30.58;49.85;101053.04;1667293;85;21005;-49
2021/08/18 07:05:52;;;;;;;6.78;5.40;;;;;;;30.58;49.78;101054.38;1674732;85;21041;-49
2021/08/18 07:08:18;;;;;;;5.83;5.22;;;;;;;30.59;49.76;101058.25;1668008;85;20986;-47
2021/08/18 07:10:45;;;;;;;5.67;5.05;;;;;;;30.60;49.51;101061.30;1667212;85;21516;-49
2021/08/18 07:13:12;;;;;;;11.48;5.62;;;;;;;30.61;49.41;101052.72;1662823;85;21090;-47
2021/08/18 07:15:39;;;;;;;6.03;5.42;;;;;;;30.62;49.60;101053.08;1663226;85;21048;-51
2021/08/18 07:18:08;;;;;;;5.47;4.83;;;;;;;30.63;49.76;101056.09;1662581;84;21080;-50
2021/08/18 07:20:35;;;;;;;8.48;5.28;;;;;;;30.65;49.88;101055.44;1663522;85;21051;-47
2021/08/18 07:23:02;;;;;;;6.45;5.28;;;;;;;30.66;49.88;101049.08;1663277;85;21546;-49
2021/08/18 07:25:29;;;;;;;7.08;5.25;;;;;;;30.66;49.57;101053.11;1665953;85;21060;-47
2021/08/18 07:27:55;;;;;;;8.08;6.78;;;;;;;30.66;49.38;101055.80;1665941;85;21606;-49
2021/08/18 07:30:22;;;;;;;12.47;9.45;;;;;;;30.66;49.56;101058.48;1664560;85;21060;-47
2021/08/18 07:32:49;;;;;;;10.32;7.53;;;;;;;30.66;49.61;101061.17;1657469;85;21083;-50
2021/08/18 07:35:16;;;;;;;11.97;6.35;;;;;;;30.67;49.67;101069.55;1659667;85;21520;-48
2021/08/18 07:37:42;;;;;;;6.72;6.03;;;;;;;30.69;49.82;101071.59;1663293;85;21115;-49
2021/08/18 07:40:10;;;;;;;5.67;5.08;;;;;;;30.72;49.85;101075.32;1668601;84;21497;-46
2021/08/18 07:42:36;;;;;;;6.20;5.60;;;;;;;30.74;49.74;101072.83;1658979;85;21031;-48
2021/08/18 07:45:04;;;;;;;4.90;4.50;;;;;;;30.78;49.73;101076.04;1663397;85;21060;-47
2021/08/18 07:47:31;;;;;;;6.12;5.53;;;;;;;30.81;49.33;101075.75;1667466;85;21080;-50
2021/08/18 07:49:58;;;;;;;8.73;5.22;;;;;;;30.84;48.94;101070.05;1672944;84;21044;-46
2021/08/18 07:52:25;;;;;;;6.00;4.28;;;;;;;30.88;49.00;101078.17;1669921;85;21508;-48
2021/08/18 07:54:51;;;;;;;8.18;5.83;;;;;;;30.90;48.92;101078.86;1664903;85;21021;-47
2021/08/18 07:57:20;;;;;;;7.28;5.67;;;;;;;30.92;48.93;101080.89;1668481;85;21481;-47
2021/08/18 07:59:50;;;;;;;8.13;5.90;;;;;;;30.93;48.87;101069.16;1669793;85;21060;-49
2021/08/18 08:02:19;;;;;;;8.50;7.62;;;;;;;30.95;48.91;101065.81;1673607;85;21516;-49
2021/08/18 08:04:48;;;;;;;10.63;8.55;;;;;;;30.95;48.83;101067.16;1673581;85;21006;-48
2021/08/18 08:07:15;;;;;;;7.90;5.65;;;;;;;30.94;48.71;101071.67;1671399;84;20993;-47
2021/08/18 08:09:43;;;;;;;6.08;5.47;;;;;;;30.93;48.64;101071.84;1665446;85;20985;-49
2021/08/18 08:12:10;;;;;;;7.08;4.53;;;;;;;30.90;48.56;101080.20;1673854;84;21072;-49
2021/08/18 08:14:36;;;;;;;6.53;4.35;;;;;;;30.86;48.70;101074.80;1669015;85;20998;-48
2021/08/18 08:17:04;;;;;;;7.33;4.78;;;;;;;30.84;48.66;101073.58;1672984;85;21493;-49
2021/08/18 08:19:33;;;;;;;15.28;5.53;;;;;;;30.84;48.80;101078.11;1671854;85;21016;-50
2021/08/18 08:22:01;;;;;;;7.35;5.00;;;;;;;30.82;48.81;101072.89;1665813;85;22428;-47
2021/08/18 08:24:29;;;;;;;16.15;10.10;;;;;;;30.82;48.81;101069.36;1663792;85;21080;-51
2021/08/18 08:26:56;;;;;;;15.13;13.70;;;;;;;30.80;49.02;101064.15;1670066;85;21036;-49
2021/08/18 08:29:22;;;;;;;19.27;17.37;;;;;;;30.81;49.02;101065.00;1666610;85;20997;-52
2021/08/18 08:31:50;;;;;;;7.40;6.72;;;;;;;30.80;49.15;101067.33;1667695;85;21093;-47
2021/08/18 08:34:17;;;;;;;5.40;4.60;;;;;;;30.78;49.00;101059.92;1662855;85;21037;-50
2021/08/18 08:36:44;;;;;;;6.78;4.92;;;;;;;30.77;49.09;101056.91;1668995;85;21083;-49
2021/08/18 08:39:11;;;;;;;6.83;4.72;;;;;;;30.76;49.18;101052.52;1665415;84;21553;-48
2021/08/18 08:41:38;;;;;;;6.72;4.80;;;;;;;30.76;49.24;101051.17;1672016;85;21025;-47
2021/08/18 08:44:06;;;;;;;4.75;4.25;;;;;;;30.76;49.42;101054.72;1672691;85;21081;-50
2021/08/18 08:46:34;;;;;;;8.45;7.37;;;;;;;30.77;49.49;101048.33;1675551;85;21493;-48
2021/08/18 08:49:02;;;;;;;9.43;8.43;;;;;;;30.78;49.55;101043.80;1675529;85;21055;-48
2021/08/18 08:51:30;;;;;;;5.10;4.60;;;;;;;30.79;49.50;101045.50;1663021;85;21093;-47
2021/08/18 08:53:58;;;;;;;4.85;4.22;;;;;;;30.82;49.59;101042.48;1655530;84;21043;-48
2021/08/18 08:56:24;;;;;;;6.30;4.60;;;;;;;30.85;49.34;101044.91;1663246;84;21052;-50
2021/08/18 08:58:51;;;;;;;9.10;4.92;;;;;;;30.87;49.33;101042.91;1662908;85;21072;-50
2021/08/18 09:01:18;;;;;;;9.85;8.35;;;;;;;30.89;49.61;101036.87;1662728;85;21520;-49
2021/08/18 09:03:45;;;;;;;10.08;8.35;;;;;;;30.92;49.60;101035.20;1658666;85;21068;-47
2021/08/18 09:06:20;;;;;;;6.03;5.40;;;;;;;30.94;49.51;101035.89;1666086;85;21085;-47
2021/08/18 09:08:52;;;;;;;7.08;4.97;;;;;;;30.96;49.31;101032.05;1665743;84;21024;-49
2021/08/18 09:11:20;;;;;;;7.25;4.30;;;;;;;30.99;49.19;101033.09;1664482;85;21512;-49
2021/08/18 09:13:53;;;;;;;7.17;5.08;;;;;;;30.99;49.07;101034.44;1664804;85;21056;-49
2021/08/18 09:16:23;;;;;;;8.38;5.12;;;;;;;31.01;49.29;101028.89;1607426;87;21340;-51
2021/08/18 09:18:52;;;;;;;12.13;8.50;;;;;;;31.03;49.63;101024.20;1608123;87;21069;-48
2021/08/18 09:21:39;;;;;;;7.60;6.53;;;;;;;31.06;49.87;101027.91;1610361;87;21519;-49
2021/08/18 09:24:23;;;;;;;5.05;4.55;;;;;;;31.08;49.12;101029.44;1614884;88;21042;-49
2021/08/18 09:26:58;;;;;;;4.85;4.10;;;;;;;31.11;49.16;101026.94;1610429;87;21073;-50
2021/08/18 09:29:45;;;;;;;4.78;4.12;;;;;;;31.14;49.07;101027.45;1613205;88;21010;-50
2021/08/18 09:32:23;;;;;;;7.20;4.85;;;;;;;31.18;49.12;101022.63;1632971;86;21507;-53
2021/08/18 09:34:54;;;;;;;6.30;4.58;;;;;;;31.22;48.83;101022.66;1632368;86;21107;-51
2021/08/18 09:37:20;;;;;;;4.62;4.22;;;;;;;31.27;48.36;101023.00;1635525;86;21589;-48
2021/08/18 09:39:47;;;;;;;5.25;4.75;;;;;;;31.34;48.01;101017.33;1636418;86;21045;-49
2021/08/18 09:42:31;;;;;;;4.67;4.08;;;;;;;31.38;47.70;101025.42;1626533;87;21120;-49
2021/08/18 09:45:20;;;;;;;6.60;5.62;;;;;;;31.40;47.31;101019.41;1621471;86;21116;-49
2021/08/18 09:47:55;;;;;;;6.67;5.40;;;;;;;31.44;47.30;101021.27;1551372;90;21589;-46
2021/08/18 09:50:24;;;;;;;5.70;4.12;;;;;;;31.46;47.90;101015.23;1532334;93;21594;-47
2021/08/18 09:52:51;;;;;;;4.83;4.37;;;;;;;31.47;48.13;101011.02;1516690;93;21068;-48
2021/08/18 09:55:23;;;;;;;5.40;4.58;;;;;;;31.48;48.01;101009.18;1554182;91;21177;-48
2021/08/18 09:57:50;;;;;;;13.00;10.43;;;;;;;31.47;47.71;101004.30;1535666;93;21769;-50
2021/08/18 10:00:18;;;;;;;26.50;24.12;;;;;;;31.47;47.61;101001.61;1535062;92;21083;-48
2021/08/18 10:02:45;;;;;;;10.43;9.03;;;;;;;31.46;47.80;100999.94;1543294;92;21180;-48
2021/08/18 10:05:12;;;;;;;7.12;6.08;;;;;;;31.48;48.09;101002.45;1513089;93;21047;-46
2021/08/18 10:07:39;;;;;;;7.45;6.72;;;;;;;31.49;47.48;100997.44;1515712;94;21645;-49
2021/08/18 10:10:07;;;;;;;19.42;17.62;;;;;;;31.50;47.24;100994.58;1534908;92;21579;-49
2021/08/18 10:12:34;;;;;;;10.05;8.43;;;;;;;31.54;47.61;100997.78;1532854;93;21052;-49
2021/08/18 10:15:04;;;;;;;10.18;5.33;;;;;;;31.57;47.43;100992.94;1535520;92;21092;-47
2021/08/18 10:17:36;;;;;;;8.13;4.20;;;;;;;31.60;47.12;100997.97;1528262;91;21126;-48
2021/08/18 10:20:06;;;;;;;4.60;4.15;;;;;;;31.63;46.93;100996.31;1510449;93;21138;-48
2021/08/18 10:22:35;;;;;;;9.80;4.75;;;;;;;31.65;46.72;100998.34;1508283;94;21176;-48
2021/08/18 10:25:36;;;;;;;6.67;6.08;;;;;;;31.67;47.39;101000.37;1530658;93;21089;-50
2021/08/18 10:28:06;;;;;;;5.75;5.25;;;;;;;31.68;47.56;101004.73;1536352;91;21069;-48
2021/08/18 10:30:45;;;;;;;5.03;4.53;;;;;;;31.71;47.22;100999.03;1436574;98;21157;-50
2021/08/18 10:33:32;;;;;;;7.00;4.47;;;;;;;31.71;46.96;100998.19;1420440;99;21180;-50
2021/08/18 10:36:01;;;;;;;6.85;4.60;;;;;;;31.73;46.81;101007.78;1422945;99;21139;-48
2021/08/18 10:38:33;;;;;;;4.90;4.37;;;;;;;31.74;46.30;101007.26;1406777;101;21468;-52
2021/08/18 10:41:01;;;;;;;6.25;4.80;;;;;;;31.75;45.99;101007.12;1432436;98;21144;-53
2021/08/18 10:43:59;;;;;;;7.45;4.42;;;;;;;31.77;46.40;101003.76;1477459;95;21084;-49
2021/08/18 10:46:26;;;;;;;6.70;5.10;;;;;;;31.79;46.79;101004.44;1488057;92;21066;-51
2021/08/18 10:48:58;;;;;;;5.05;4.50;;;;;;;31.80;46.99;101002.59;1552679;89;21096;-49
2021/08/18 10:51:44;;;;;;;12.10;4.95;;;;;;;31.82;46.90;101001.41;1559680;90;21084;-48
2021/08/18 10:54:35;;;;;;;6.90;5.33;;;;;;;31.83;46.92;101003.10;1577524;90;21592;-50
2021/08/18 10:57:04;;;;;;;5.50;5.00;;;;;;;31.86;46.83;100996.55;1559501;90;21521;-47
2021/08/18 10:59:47;;;;;;;7.92;5.53;;;;;;;31.89;46.70;100997.06;1605183;88;21081;-48
2021/08/18 11:02:50;;;;;;;6.00;5.37;;;;;;;31.93;46.77;100993.06;1607864;87;21175;-51
2021/08/18 11:05:19;;;;;;;6.28;5.78;;;;;;;31.97;46.64;100993.56;1603124;88;21586;-47
2021/08/18 11:08:20;;;;;;;5.90;5.28;;;;;;;32.01;46.44;100990.39;1603529;88;21082;-51
2021/08/18 11:10:56;;;;;;;5.50;5.00;;;;;;;32.04;46.26;100989.22;1570863;90;21098;-50
2021/08/18 11:13:48;;;;;;;5.33;4.75;;;;;;;32.05;45.90;100986.36;1552394;91;21582;-48
2021/08/18 11:16:26;;;;;;;8.48;5.25;;;;;;;32.06;45.85;100985.36;1609723;87;21051;-50
2021/08/18 11:18:59;;;;;;;6.62;5.05;;;;;;;32.08;45.21;100986.03;1609180;87;21059;-48
2021/08/18 11:21:33;;;;;;;9.08;4.60;;;;;;;32.09;44.97;100980.97;1557620;91;21029;-49
2021/08/18 11:24:03;;;;;;;5.60;4.75;;;;;;;32.11;44.48;100978.63;1554630;91;21534;-52
2021/08/18 11:26:40;;;;;;;6.03;4.50;;;;;;;32.11;44.15;100983.49;1561397;89;21159;-50
2021/08/18 11:29:19;;;;;;;4.92;4.42;;;;;;;32.11;43.60;100982.14;1650026;86;21123;-49